Time;durP1;ratioP1;P1;durP2;ratioP2;P2;SDS_P1;SDS_P2;PMS_P1;PMS_P2;Temp;Humidity;BMP_temperature;BMP_pressure;BME280_temperature;BME280_humidity;BME280_pressure;Samples;Min_cycle;Max_cycle;Signal;HPM_P1;HPM_P2
2023/10/22 00:00:35;;;;;;;4.32;0.82;;;14.40;80.20;;;;;;9163478;19;20494;-71
2023/10/22 00:03:43;;;;;;;6.47;1.33;;;14.50;80.30;;;;;;9165441;19;20033;-72
2023/10/22 00:06:49;;;;;;;4.65;1.02;;;14.50;80.30;;;;;;9163284;19;20018;-72
2023/10/22 00:09:56;;;;;;;7.13;0.90;;;14.50;80.30;;;;;;9164756;19;20018;-71
2023/10/22 00:13:02;;;;;;;5.88;1.25;;;14.50;80.20;;;;;;9164232;19;20015;-71
2023/10/22 00:16:12;;;;;;;8.98;1.40;;;14.50;80.20;;;;;;9163967;19;20789;-71
2023/10/22 00:19:17;;;;;;;3.55;1.10;;;14.60;80.20;;;;;;9164933;19;20018;-71
2023/10/22 00:22:25;;;;;;;6.57;1.00;;;14.60;80.20;;;;;;9163004;19;20011;-71
2023/10/22 00:25:31;;;;;;;5.22;1.35;;;14.60;80.60;;;;;;9163997;19;20366;-71
2023/10/22 00:28:39;;;;;;;4.72;1.20;;;14.60;80.20;;;;;;9164601;19;20030;-71
2023/10/22 00:31:47;;;;;;;3.45;0.95;;;14.60;80.20;;;;;;9165227;19;20664;-72
2023/10/22 00:34:55;;;;;;;3.95;0.80;;;14.60;80.20;;;;;;9164071;19;20018;-71
2023/10/22 00:38:00;;;;;;;3.45;0.80;;;14.60;80.30;;;;;;9165350;19;20019;-71
2023/10/22 00:41:07;;;;;;;5.97;0.80;;;14.50;80.20;;;;;;9160006;19;20049;-72
2023/10/22 00:44:13;;;;;;;4.00;0.90;;;14.50;80.30;;;;;;9164794;19;20014;-71
2023/10/22 00:47:23;;;;;;;4.07;0.98;;;14.50;80.30;;;;;;9162146;19;20015;-71
2023/10/22 00:50:28;;;;;;;7.82;1.10;;;14.50;80.30;;;;;;9164198;19;20031;-71
2023/10/22 00:53:36;;;;;;;4.75;1.00;;;14.50;80.40;;;;;;9160774;19;20014;-72
2023/10/22 00:56:42;;;;;;;4.72;1.00;;;14.50;80.40;;;;;;9161224;19;20015;-71
2023/10/22 00:59:51;;;;;;;5.25;1.23;;;14.50;80.40;;;;;;9160798;19;20845;-71
2023/10/22 01:02:59;;;;;;;4.53;1.13;;;14.50;80.40;;;;;;9167897;19;20480;-71
2023/10/22 01:06:09;;;;;;;3.30;1.05;;;14.50;80.50;;;;;;9175789;19;20091;-72
2023/10/22 01:09:16;;;;;;;4.25;0.95;;;14.50;80.60;;;;;;9173230;19;20022;-73
2023/10/22 01:12:23;;;;;;;4.00;1.17;;;14.50;80.70;;;;;;9175285;19;20014;-73
2023/10/22 01:15:29;;;;;;;3.17;0.75;;;14.40;80.80;;;;;;9175851;19;20018;-73
2023/10/22 01:18:39;;;;;;;7.35;1.00;;;14.40;80.80;;;;;;9176329;19;20022;-73
2023/10/22 01:21:45;;;;;;;1.73;0.82;;;14.30;80.90;;;;;;9174083;19;20696;-73
2023/10/22 01:24:55;;;;;;;5.97;1.00;;;14.30;80.90;;;;;;9175705;19;20504;-74
2023/10/22 01:28:01;;;;;;;3.25;1.45;;;14.30;81.00;;;;;;9175310;19;20018;-74
2023/10/22 01:31:16;;;;;;;5.43;1.13;;;14.20;81.10;;;;;;9174051;19;20070;-72
2023/10/22 01:34:22;;;;;;;2.70;0.80;;;14.20;81.20;;;;;;9176316;19;20014;-72
2023/10/22 01:37:29;;;;;;;6.45;1.05;;;14.20;81.30;;;;;;9174214;19;20010;-72
2023/10/22 01:40:38;;;;;;;7.13;0.95;;;14.20;81.30;;;;;;9173735;19;20025;-73
2023/10/22 01:43:46;;;;;;;5.97;1.27;;;14.10;81.30;;;;;;9170018;19;20380;-73
2023/10/22 01:46:52;;;;;;;4.13;0.85;;;14.10;81.40;;;;;;9174463;19;20029;-73
2023/10/22 01:50:00;;;;;;;4.75;1.00;;;14.10;81.50;;;;;;9174727;19;20022;-72
2023/10/22 01:53:05;;;;;;;4.63;1.10;;;14.10;81.60;;;;;;9172105;19;20547;-73
2023/10/22 01:56:16;;;;;;;4.78;0.95;;;14.10;81.70;;;;;;9173865;19;20048;-72
2023/10/22 01:59:21;;;;;;;3.03;0.68;;;14.00;81.60;;;;;;9171298;19;20018;-72
2023/10/22 02:02:29;;;;;;;7.60;0.77;;;14.00;81.70;;;;;;9169707;19;20018;-72
2023/10/22 02:05:35;;;;;;;4.32;0.90;;;14.00;81.70;;;;;;9171887;19;20018;-73
2023/10/22 02:08:43;;;;;;;4.35;0.63;;;14.00;81.80;;;;;;9171899;19;20019;-72
2023/10/22 02:11:52;;;;;;;7.47;0.73;;;14.00;81.80;;;;;;9171372;19;20022;-72
2023/10/22 02:14:59;;;;;;;2.38;0.52;;;14.00;81.90;;;;;;9169963;19;20025;-72
2023/10/22 02:18:05;;;;;;;12.75;0.80;;;13.90;81.80;;;;;;9171542;19;20060;-72
2023/10/22 02:21:13;;;;;;;2.35;0.63;;;14.00;81.90;;;;;;9171914;19;20029;-71
2023/10/22 02:24:19;;;;;;;3.63;0.90;;;13.90;81.90;;;;;;9173544;19;20099;-72
2023/10/22 02:27:29;;;;;;;4.82;1.17;;;14.00;82.00;;;;;;9178897;19;20025;-72
2023/10/22 02:30:34;;;;;;;3.90;0.60;;;14.00;82.00;;;;;;9185252;19;20029;-72
2023/10/22 02:33:42;;;;;;;7.78;0.90;;;14.00;82.00;;;;;;9181480;19;20498;-72
2023/10/22 02:36:47;;;;;;;1.90;0.65;;;14.00;82.10;;;;;;9173948;19;20015;-73
2023/10/22 02:39:55;;;;;;;1.42;0.60;;;14.00;82.10;;;;;;9172947;19;20041;-74
2023/10/22 02:43:03;;;;;;;4.50;0.70;;;14.00;82.10;;;;;;9165829;19;20025;-74
2023/10/22 02:46:10;;;;;;;3.42;0.50;;;14.00;82.10;;;;;;9171903;19;20018;-73
2023/10/22 02:49:16;;;;;;;4.88;0.73;;;14.00;82.10;;;;;;9169580;19;20014;-74
2023/10/22 02:52:23;;;;;;;2.40;0.90;;;14.00;82.20;;;;;;9170991;19;20014;-73
2023/10/22 02:55:29;;;;;;;3.65;1.33;;;14.00;82.20;;;;;;9166597;19;20026;-72
2023/10/22 02:58:40;;;;;;;3.78;0.70;;;14.00;82.10;;;;;;9170532;19;20033;-73
2023/10/22 03:01:46;;;;;;;1.38;0.70;;;14.00;82.20;;;;;;9169631;19;20063;-73
2023/10/22 03:04:53;;;;;;;4.65;0.60;;;14.00;82.20;;;;;;9170587;19;20460;-73
2023/10/22 03:07:59;;;;;;;1.45;0.60;;;14.00;82.20;;;;;;9170677;19;20051;-74
2023/10/22 03:11:07;;;;;;;3.20;0.77;;;14.00;82.20;;;;;;9168105;19;20017;-73
2023/10/22 03:14:20;;;;;;;5.30;0.85;;;14.00;82.20;;;;;;9170013;19;20498;-73
2023/10/22 03:17:27;;;;;;;5.97;0.80;;;14.00;82.30;;;;;;9169547;19;20062;-73
2023/10/22 03:20:34;;;;;;;4.72;1.05;;;14.00;82.30;;;;;;9169495;19;20019;-73
2023/10/22 03:23:42;;;;;;;3.88;0.70;;;14.00;82.30;;;;;;9166080;19;20010;-72
2023/10/22 03:26:48;;;;;;;3.03;0.70;;;14.00;82.30;;;;;;9169353;19;20088;-74
2023/10/22 03:29:58;;;;;;;1.50;0.60;;;14.00;82.40;;;;;;9170063;19;20010;-74
2023/10/22 03:33:03;;;;;;;2.58;0.60;;;14.00;82.40;;;;;;9168476;19;20014;-75
2023/10/22 03:36:17;;;;;;;6.22;0.85;;;14.00;82.50;;;;;;9169755;19;20507;-75
2023/10/22 03:39:23;;;;;;;8.80;0.75;;;14.00;82.50;;;;;;9170917;19;20022;-75
2023/10/22 03:42:30;;;;;;;5.07;0.85;;;14.00;82.60;;;;;;9163978;19;20022;-75
2023/10/22 03:45:38;;;;;;;3.05;0.70;;;14.00;82.60;;;;;;9167706;19;20007;-75
2023/10/22 03:48:46;;;;;;;3.90;0.73;;;14.00;82.70;;;;;;9167846;19;20018;-75
2023/10/22 03:51:51;;;;;;;5.43;1.00;;;13.90;82.70;;;;;;9169767;19;20022;-74
2023/10/22 03:54:59;;;;;;;2.90;0.95;;;13.90;83.40;;;;;;9170413;19;20018;-75
2023/10/22 03:58:05;;;;;;;4.25;1.30;;;13.90;82.90;;;;;;9170810;19;20400;-75
2023/10/22 04:01:15;;;;;;;3.90;0.70;;;13.90;82.90;;;;;;9168597;19;20028;-75
2023/10/22 04:04:20;;;;;;;2.58;0.70;;;13.90;83.10;;;;;;9165812;19;20015;-76
2023/10/22 04:07:30;;;;;;;6.57;1.08;;;13.80;83.10;;;;;;9168490;19;20018;-75
2023/10/22 04:10:36;;;;;;;5.28;0.90;;;13.80;83.20;;;;;;9168317;19;20126;-77
2023/10/22 04:13:43;;;;;;;4.88;0.90;;;13.80;83.20;;;;;;9167550;19;20487;-75
2023/10/22 04:16:52;;;;;;;3.92;0.80;;;13.80;83.40;;;;;;9167214;19;20025;-77
2023/10/22 04:19:59;;;;;;;6.03;0.85;;;13.80;83.40;;;;;;9167910;19;20029;-76
2023/10/22 04:23:05;;;;;;;5.93;1.25;;;13.70;83.40;;;;;;9166692;19;20376;-76
2023/10/22 04:26:16;;;;;;;2.40;0.90;;;13.70;83.50;;;;;;9166867;19;20421;-76
2023/10/22 04:29:22;;;;;;;6.35;1.00;;;13.70;83.60;;;;;;9168488;19;20014;-75
2023/10/22 04:32:32;;;;;;;4.68;0.70;;;13.70;83.60;;;;;;9170018;19;20014;-75
2023/10/22 04:35:38;;;;;;;10.68;1.58;;;13.70;83.70;;;;;;9170345;19;20439;-76
2023/10/22 04:38:46;;;;;;;2.30;0.93;;;13.70;83.70;;;;;;9179481;19;20014;-75
2023/10/22 04:41:51;;;;;;;3.92;0.80;;;13.60;83.80;;;;;;9176874;19;20043;-75
2023/10/22 04:44:59;;;;;;;2.95;0.85;;;13.60;83.80;;;;;;9174067;19;20018;-76
2023/10/22 04:48:07;;;;;;;9.20;1.20;;;13.60;83.90;;;;;;9176765;19;20014;-77
2023/10/22 04:51:16;;;;;;;4.22;0.90;;;13.60;84.00;;;;;;9176461;19;20015;-76
2023/10/22 04:54:21;;;;;;;3.03;1.10;;;13.60;84.60;;;;;;9176425;19;20384;-77
2023/10/22 04:57:29;;;;;;;2.65;1.02;;;13.60;84.10;;;;;;9178378;19;20475;-76
2023/10/22 05:00:34;;;;;;;3.63;1.15;;;13.60;84.20;;;;;;9175166;19;20006;-75
2023/10/22 05:03:44;;;;;;;2.65;1.10;;;13.60;84.20;;;;;;9175145;19;20462;-76
2023/10/22 05:06:50;;;;;;;1.95;1.00;;;13.50;84.20;;;;;;9178569;19;20030;-77
2023/10/22 05:09:57;;;;;;;4.70;1.40;;;13.50;84.30;;;;;;9178520;19;20015;-76
2023/10/22 05:13:03;;;;;;;6.00;1.40;;;13.50;84.30;;;;;;9176505;19;20033;-75
2023/10/22 05:16:10;;;;;;;2.28;1.10;;;13.50;84.40;;;;;;9177255;19;20017;-77
2023/10/22 05:19:18;;;;;;;6.95;1.50;;;13.50;84.50;;;;;;9176158;19;20641;-75
2023/10/22 05:22:26;;;;;;;2.65;1.05;;;13.50;84.60;;;;;;9175331;19;20014;-75
2023/10/22 05:25:34;;;;;;;3.92;1.50;;;13.50;84.60;;;;;;9174994;19;20014;-75
2023/10/22 05:28:41;;;;;;;1.83;1.30;;;13.40;84.60;;;;;;9176267;19;20019;-77
2023/10/22 05:31:47;;;;;;;2.75;1.30;;;13.40;84.60;;;;;;9176244;19;20014;-77
2023/10/22 05:34:59;;;;;;;3.13;1.33;;;13.50;84.80;;;;;;9174186;19;20014;-75
2023/10/22 05:38:04;;;;;;;4.88;1.40;;;13.40;84.80;;;;;;9175804;19;20726;-75
2023/10/22 05:41:11;;;;;;;3.97;1.73;;;13.40;84.80;;;;;;9170569;19;20007;-74
2023/10/22 05:44:18;;;;;;;6.65;2.20;;;13.40;84.80;;;;;;9177456;19;20037;-73
2023/10/22 05:47:29;;;;;;;9.77;2.63;;;13.40;84.90;;;;;;9184510;19;20011;-74
2023/10/22 05:50:39;;;;;;;4.18;2.35;;;13.40;85.00;;;;;;9180861;19;20007;-73
2023/10/22 05:53:47;;;;;;;6.15;2.80;;;13.40;85.60;;;;;;9178879;19;20357;-74
2023/10/22 05:56:52;;;;;;;5.72;2.95;;;13.40;85.00;;;;;;9176904;19;20488;-74
2023/10/22 06:00:00;;;;;;;5.45;2.83;;;13.40;85.10;;;;;;9173879;19;20013;-74
2023/10/22 06:03:09;;;;;;;5.07;2.42;;;13.40;85.20;;;;;;9171427;19;20055;-74
2023/10/22 06:06:23;;;;;;;5.20;2.40;;;13.40;85.10;;;;;;9172533;19;20014;-74
2023/10/22 06:09:28;;;;;;;10.55;2.70;;;13.40;85.20;;;;;;9173343;19;20404;-75
2023/10/22 06:12:39;;;;;;;3.97;2.97;;;13.40;85.20;;;;;;9163123;19;20453;-74
2023/10/22 06:15:50;;;;;;;6.65;2.85;;;13.40;85.20;;;;;;9171444;19;20029;-74
2023/10/22 06:18:58;;;;;;;8.43;3.20;;;13.40;85.30;;;;;;9171183;19;20017;-71
2023/10/22 06:22:06;;;;;;;8.45;2.88;;;13.40;85.20;;;;;;9173741;19;20023;-74
2023/10/22 06:25:14;;;;;;;8.73;3.67;;;13.30;85.20;;;;;;9170665;19;21075;-71
2023/10/22 06:28:20;;;;;;;9.85;3.40;;;13.30;85.80;;;;;;9172809;19;20086;-72
2023/10/22 06:31:27;;;;;;;4.63;2.75;;;13.30;85.30;;;;;;9171416;19;20480;-72
2023/10/22 06:34:39;;;;;;;5.45;2.92;;;13.30;85.30;;;;;;9172086;19;20018;-72
2023/10/22 06:37:57;;;;;;;8.88;3.10;;;13.30;85.40;;;;;;9171144;19;20045;-71
2023/10/22 06:41:03;;;;;;;8.73;3.55;;;13.30;85.40;;;;;;9173374;19;20029;-72
2023/10/22 06:44:11;;;;;;;9.35;3.85;;;13.20;85.40;;;;;;9170010;19;20869;-72
2023/10/22 06:47:16;;;;;;;6.88;4.10;;;13.20;85.40;;;;;;9170856;19;20756;-72
2023/10/22 06:50:24;;;;;;;6.60;4.10;;;13.20;85.50;;;;;;9169843;19;20412;-72
2023/10/22 06:53:32;;;;;;;7.85;4.00;;;13.30;85.50;;;;;;9171209;19;20345;-71
2023/10/22 06:56:40;;;;;;;9.75;4.10;;;13.20;85.50;;;;;;9169972;19;20026;-71
2023/10/22 06:59:49;;;;;;;8.75;3.92;;;13.20;85.50;;;;;;9169466;19;20018;-70
2023/10/22 07:02:57;;;;;;;8.02;4.45;;;13.20;85.50;;;;;;9170962;19;20029;-72
2023/10/22 07:06:02;;;;;;;8.02;4.07;;;13.20;85.50;;;;;;9168682;19;20490;-71
2023/10/22 07:09:12;;;;;;;10.00;4.65;;;13.20;85.60;;;;;;9170571;19;20011;-71
2023/10/22 07:12:19;;;;;;;10.25;4.38;;;13.30;86.30;;;;;;9168801;19;20472;-71
2023/10/22 07:15:27;;;;;;;9.50;4.18;;;13.30;85.60;;;;;;9170114;19;20018;-72
2023/10/22 07:18:32;;;;;;;5.97;3.97;;;13.30;85.60;;;;;;9168374;19;20022;-72
2023/10/22 07:21:40;;;;;;;7.80;4.22;;;13.30;85.60;;;;;;9166562;19;20030;-74
2023/10/22 07:24:48;;;;;;;6.82;3.47;;;13.30;85.70;;;;;;9167289;19;20093;-72
2023/10/22 07:27:55;;;;;;;4.82;3.58;;;13.30;85.70;;;;;;9166515;19;20022;-70
2023/10/22 07:31:01;;;;;;;6.60;3.45;;;13.30;85.70;;;;;;9168499;19;20074;-70
2023/10/22 07:34:09;;;;;;;4.18;3.42;;;13.30;85.70;;;;;;9166015;19;20486;-71
2023/10/22 07:37:14;;;;;;;8.77;3.22;;;13.30;85.80;;;;;;9165613;19;20024;-71
2023/10/22 07:40:24;;;;;;;4.97;2.75;;;13.30;85.80;;;;;;9167564;19;20014;-71
2023/10/22 07:43:31;;;;;;;7.10;2.63;;;13.30;85.70;;;;;;9161911;19;20099;-71
2023/10/22 07:46:38;;;;;;;3.70;2.20;;;13.30;85.70;;;;;;9161868;19;20010;-71
2023/10/22 07:49:44;;;;;;;4.68;2.28;;;13.20;85.70;;;;;;9167560;19;20069;-70
2023/10/22 07:52:51;;;;;;;5.45;2.40;;;13.30;85.80;;;;;;9167593;19;20259;-70
2023/10/22 07:55:59;;;;;;;5.53;2.50;;;13.20;85.70;;;;;;9166284;19;20031;-70
2023/10/22 07:59:07;;;;;;;5.68;2.35;;;13.20;85.80;;;;;;9164148;19;20022;-70
2023/10/22 08:02:13;;;;;;;3.70;2.47;;;13.30;85.80;;;;;;9165028;19;20470;-72
2023/10/22 08:05:22;;;;;;;4.32;3.58;;;13.20;85.70;;;;;;9164966;19;20327;-72
2023/10/22 08:08:28;;;;;;;5.93;2.00;;;13.30;85.80;;;;;;9165112;19;20021;-70
2023/10/22 08:11:41;;;;;;;3.47;2.25;;;13.30;85.80;;;;;;9165838;19;20770;-70
2023/10/22 08:14:49;;;;;;;5.75;1.90;;;13.30;85.80;;;;;;9168084;19;20689;-71
2023/10/22 08:18:12;;;;;;;7.43;2.22;;;13.30;85.80;;;;;;9162333;19;20390;-71
2023/10/22 08:21:27;;;;;;;3.50;1.67;;;13.30;85.90;;;;;;9165643;19;20472;-71
2023/10/22 08:24:37;;;;;;;4.40;1.60;;;13.30;85.80;;;;;;9163746;19;20018;-71
2023/10/22 08:27:50;;;;;;;3.92;1.38;;;13.30;85.90;;;;;;9165444;19;20014;-71
2023/10/22 08:30:55;;;;;;;2.75;1.80;;;13.30;85.80;;;;;;9162432;19;20052;-71
2023/10/22 08:34:03;;;;;;;3.53;2.40;;;13.40;85.80;;;;;;9164827;19;20018;-70
2023/10/22 08:37:09;;;;;;;5.97;2.50;;;13.40;85.70;;;;;;9166063;19;20022;-70
2023/10/22 08:40:17;;;;;;;5.28;3.20;;;13.40;85.70;;;;;;9163076;19;20014;-70
2023/10/22 08:43:25;;;;;;;5.43;3.13;;;13.40;85.80;;;;;;9162626;19;20022;-70
2023/10/22 08:46:38;;;;;;;9.10;4.38;;;13.40;85.80;;;;;;9164081;19;20019;-70
2023/10/22 08:49:44;;;;;;;10.77;4.90;;;13.40;85.80;;;;;;9163592;19;20082;-70
2023/10/22 08:52:52;;;;;;;10.98;4.53;;;13.50;85.90;;;;;;9163511;19;20074;-71
2023/10/22 08:56:03;;;;;;;12.70;5.13;;;13.50;85.80;;;;;;9163435;19;20093;-70
2023/10/22 08:59:14;;;;;;;6.53;4.57;;;13.50;85.80;;;;;;9169227;19;20061;-71
2023/10/22 09:02:21;;;;;;;8.15;4.57;;;13.50;85.70;;;;;;9165634;19;20018;-71
2023/10/22 09:05:49;;;;;;;9.20;4.63;;;13.60;85.70;;;;;;9164809;19;20324;-70
2023/10/22 09:09:00;;;;;;;8.63;4.45;;;13.60;85.70;;;;;;9162327;19;20024;-70
2023/10/22 09:12:10;;;;;;;8.52;4.60;;;13.60;85.70;;;;;;9163031;19;20015;-70
2023/10/22 09:15:19;;;;;;;6.72;4.78;;;13.60;85.70;;;;;;9164507;19;20055;-70
2023/10/22 09:18:26;;;;;;;8.27;4.28;;;13.60;85.70;;;;;;9162727;19;20026;-72
2023/10/22 09:21:43;;;;;;;7.50;4.10;;;13.60;85.70;;;;;;9162221;19;20070;-69
2023/10/22 09:24:52;;;;;;;6.30;3.45;;;13.60;85.80;;;;;;9170734;19;20025;-70
2023/10/22 09:27:58;;;;;;;9.95;3.70;;;13.60;85.80;;;;;;9168956;19;20026;-70
2023/10/22 09:31:08;;;;;;;8.88;3.90;;;13.60;85.80;;;;;;9171224;19;20027;-70
2023/10/22 09:34:27;;;;;;;11.52;3.55;;;13.70;85.90;;;;;;9170738;19;20419;-70
2023/10/22 09:37:51;;;;;;;7.75;3.58;;;13.70;86.00;;;;;;9170098;19;20022;-71
2023/10/22 09:40:59;;;;;;;5.47;3.40;;;13.80;86.10;;;;;;9172790;19;20361;-71
2023/10/22 09:44:10;;;;;;;5.45;3.50;;;13.90;86.10;;;;;;9170027;19;20013;-71
2023/10/22 09:47:22;;;;;;;7.72;3.35;;;14.00;86.30;;;;;;9169452;19;20028;-71
2023/10/22 09:50:33;;;;;;;4.05;3.05;;;14.10;86.40;;;;;;9170990;19;20018;-70
2023/10/22 09:53:41;;;;;;;6.97;2.90;;;14.20;86.40;;;;;;9170389;19;20696;-72
2023/10/22 09:56:53;;;;;;;7.53;3.03;;;14.30;86.30;;;;;;9169377;19;20496;-71
2023/10/22 10:00:04;;;;;;;10.02;3.63;;;14.40;86.20;;;;;;9172747;19;20097;-71
2023/10/22 10:03:19;;;;;;;10.25;2.80;;;14.60;86.20;;;;;;9168941;19;20062;-72
2023/10/22 10:06:26;;;;;;;11.47;2.63;;;14.70;86.80;;;;;;9170022;19;20022;-71
2023/10/22 10:09:36;;;;;;;9.70;2.83;;;14.90;86.00;;;;;;9170972;19;20015;-71
2023/10/22 10:12:43;;;;;;;11.43;2.55;;;15.00;85.80;;;;;;9170838;19;20018;-71
2023/10/22 10:16:01;;;;;;;6.55;1.80;;;15.10;85.70;;;;;;9169526;19;20033;-72
2023/10/22 10:19:10;;;;;;;6.50;2.90;;;15.20;85.50;;;;;;9166110;19;20026;-71
2023/10/22 10:22:39;;;;;;;8.27;1.80;;;15.30;85.20;;;;;;9168012;19;20361;-71
2023/10/22 10:25:45;;;;;;;8.48;1.92;;;15.40;84.90;;;;;;9165813;19;20101;-70
2023/10/22 10:28:53;;;;;;;8.18;1.80;;;15.50;84.90;;;;;;9169469;19;20018;-70
2023/10/22 10:32:22;;;;;;;7.95;1.85;;;15.40;84.60;;;;;;9167705;19;20376;-70
2023/10/22 10:35:32;;;;;;;3.28;1.42;;;15.50;84.30;;;;;;9167719;19;20018;-71
2023/10/22 10:38:38;;;;;;;5.35;1.40;;;15.50;84.20;;;;;;9169696;19;20372;-70
2023/10/22 10:41:56;;;;;;;7.65;1.45;;;15.40;84.20;;;;;;9163367;19;20011;-70
2023/10/22 10:45:09;;;;;;;4.95;1.73;;;15.40;83.80;;;;;;9167859;19;20346;-70
2023/10/22 10:48:45;;;;;;;7.47;1.10;;;15.40;84.00;;;;;;9166324;19;20047;-70
2023/10/22 10:52:03;;;;;;;8.52;1.48;;;15.40;83.90;;;;;;9168262;19;20042;-71
2023/10/22 10:55:12;;;;;;;9.60;1.20;;;15.40;83.90;;;;;;9168882;19;20116;-70
2023/10/22 10:58:17;;;;;;;4.80;1.08;;;15.50;84.10;;;;;;9169033;19;20055;-70
2023/10/22 11:01:25;;;;;;;1.60;1.02;;;15.60;84.20;;;;;;9165406;19;20368;-70
2023/10/22 11:04:35;;;;;;;6.93;1.17;;;15.70;84.20;;;;;;9168315;19;20777;-70
2023/10/22 11:07:46;;;;;;;4.15;1.65;;;16.10;84.30;;;;;;9165459;19;20122;-70
2023/10/22 11:10:52;;;;;;;7.00;1.40;;;16.00;83.90;;;;;;9167240;19;20022;-70
2023/10/22 11:14:13;;;;;;;8.07;2.05;;;15.90;83.60;;;;;;9165656;19;20029;-71
2023/10/22 11:17:23;;;;;;;3.63;1.13;;;16.00;83.30;;;;;;9167579;19;20017;-70
2023/10/22 11:20:30;;;;;;;6.70;1.60;;;16.10;83.40;;;;;;9164862;19;20050;-71
2023/10/22 11:23:40;;;;;;;7.55;1.55;;;16.20;83.30;;;;;;9163611;19;20486;-70
2023/10/22 11:26:49;;;;;;;6.13;1.38;;;16.30;82.80;;;;;;9160882;19;20630;-69
2023/10/22 11:29:55;;;;;;;2.33;1.13;;;16.40;82.60;;;;;;9166672;19;20790;-69
2023/10/22 11:33:03;;;;;;;4.72;1.05;;;16.40;82.50;;;;;;9168263;19;20003;-68
2023/10/22 11:36:20;;;;;;;5.07;1.40;;;16.40;83.00;;;;;;9167740;19;20094;-69
2023/10/22 11:39:35;;;;;;;4.20;1.52;;;16.40;81.90;;;;;;9166231;19;20502;-68
2023/10/22 11:42:46;;;;;;;3.15;1.20;;;16.40;81.80;;;;;;9162130;19;20034;-69
2023/10/22 11:45:55;;;;;;;4.00;0.90;;;16.40;81.90;;;;;;9162524;19;20033;-68
2023/10/22 11:49:02;;;;;;;4.18;1.45;;;16.40;82.40;;;;;;9162026;19;20014;-68
2023/10/22 11:52:09;;;;;;;6.03;1.60;;;16.30;81.60;;;;;;9162716;19;20010;-70
2023/10/22 11:55:18;;;;;;;4.30;1.20;;;16.30;81.50;;;;;;9162487;19;20095;-68
2023/10/22 11:58:44;;;;;;;3.75;1.15;;;16.20;81.50;;;;;;9162637;19;20022;-68
2023/10/22 12:01:49;;;;;;;4.43;1.40;;;16.20;81.70;;;;;;9162512;19;20475;-69
2023/10/22 12:04:59;;;;;;;4.85;1.35;;;16.20;81.80;;;;;;9159145;19;20049;-68
2023/10/22 12:08:07;;;;;;;5.07;1.30;;;16.20;81.90;;;;;;9160876;19;20014;-68
2023/10/22 12:11:17;;;;;;;3.40;1.30;;;16.30;81.90;;;;;;9164060;19;20361;-69
2023/10/22 12:14:23;;;;;;;4.43;0.90;;;16.30;81.80;;;;;;9173142;19;20022;-69
2023/10/22 12:17:30;;;;;;;6.95;1.40;;;16.40;81.90;;;;;;9169417;19;20015;-72
2023/10/22 12:20:36;;;;;;;2.95;1.10;;;16.50;81.90;;;;;;9166517;19;20011;-69
2023/10/22 12:23:44;;;;;;;3.70;0.95;;;16.60;81.90;;;;;;9166448;19;20019;-67
2023/10/22 12:26:57;;;;;;;1.13;0.70;;;16.70;81.80;;;;;;9167297;19;20014;-71
2023/10/22 12:30:05;;;;;;;4.10;1.65;;;16.80;81.50;;;;;;9164875;19;20371;-69
2023/10/22 12:33:11;;;;;;;3.47;1.30;;;16.90;81.40;;;;;;9163584;19;20029;-69
2023/10/22 12:36:19;;;;;;;2.83;0.70;;;17.00;81.30;;;;;;9163724;19;20029;-68
2023/10/22 12:39:25;;;;;;;3.70;0.85;;;17.00;80.90;;;;;;9162808;19;20468;-68
2023/10/22 12:42:40;;;;;;;1.77;0.70;;;17.10;80.70;;;;;;9154324;19;20014;-67
2023/10/22 12:45:46;;;;;;;3.40;0.85;;;17.10;80.30;;;;;;9159900;19;20492;-68
2023/10/22 12:48:54;;;;;;;3.47;0.70;;;17.10;80.20;;;;;;9159344;19;20714;-69
2023/10/22 12:51:59;;;;;;;4.18;0.82;;;17.10;80.50;;;;;;9158182;19;20455;-69
2023/10/22 12:55:08;;;;;;;1.27;0.60;;;17.10;79.60;;;;;;9160647;19;20050;-67
2023/10/22 12:58:16;;;;;;;0.90;0.45;;;17.00;79.50;;;;;;9166228;19;20014;-68
2023/10/22 13:01:25;;;;;;;1.73;0.55;;;17.00;79.20;;;;;;9173785;19;20014;-70
2023/10/22 13:04:30;;;;;;;3.30;0.73;;;16.90;79.30;;;;;;9170102;19;20017;-68
2023/10/22 13:07:40;;;;;;;3.05;0.75;;;16.90;79.30;;;;;;9169770;19;20013;-69
2023/10/22 13:10:49;;;;;;;2.47;0.88;;;16.80;79.20;;;;;;9171019;19;20014;-68
2023/10/22 13:13:59;;;;;;;6.43;1.38;;;16.80;79.00;;;;;;9169929;19;20014;-68
2023/10/22 13:17:05;;;;;;;2.28;0.70;;;16.70;79.00;;;;;;9172490;19;20015;-69
2023/10/22 13:20:14;;;;;;;1.10;0.60;;;16.70;79.00;;;;;;9167954;19;20018;-70
2023/10/22 13:23:19;;;;;;;4.28;0.82;;;16.60;78.90;;;;;;9170943;19;20022;-69
2023/10/22 13:26:27;;;;;;;3.42;0.75;;;16.60;78.90;;;;;;9171102;19;20017;-68
2023/10/22 13:29:35;;;;;;;4.18;0.75;;;16.60;78.90;;;;;;9170644;19;20035;-68
2023/10/22 13:32:42;;;;;;;2.10;0.80;;;16.60;78.80;;;;;;9170804;19;20022;-69
2023/10/22 13:35:48;;;;;;;0.95;0.60;;;16.60;78.80;;;;;;9171742;19;20022;-74
2023/10/22 13:38:55;;;;;;;4.53;0.65;;;16.50;78.70;;;;;;9171818;19;20901;-69
2023/10/22 13:42:01;;;;;;;9.88;1.02;;;16.50;78.60;;;;;;9167518;19;20011;-68
2023/10/22 13:45:12;;;;;;;2.20;0.70;;;16.50;78.70;;;;;;9171696;19;20015;-68
2023/10/22 13:48:18;;;;;;;3.42;1.17;;;16.50;78.60;;;;;;9168208;19;20434;-69
2023/10/22 13:51:25;;;;;;;3.72;0.98;;;16.50;78.70;;;;;;9169644;19;20026;-68
2023/10/22 13:54:31;;;;;;;3.83;0.75;;;16.50;78.60;;;;;;9170537;19;20015;-68
2023/10/22 13:57:39;;;;;;;2.58;1.30;;;16.40;78.80;;;;;;9170623;19;20472;-69
2023/10/22 14:00:47;;;;;;;2.35;0.90;;;16.50;78.50;;;;;;9171252;19;20556;-69
2023/10/22 14:03:54;;;;;;;2.55;0.88;;;16.50;78.40;;;;;;9168550;19;20018;-69
2023/10/22 14:07:00;;;;;;;0.85;0.70;;;16.50;78.40;;;;;;9170430;19;20563;-69
2023/10/22 14:10:09;;;;;;;2.88;0.80;;;16.50;78.40;;;;;;9163852;19;20022;-68
2023/10/22 14:13:16;;;;;;;3.35;0.98;;;16.40;78.30;;;;;;9171133;19;20081;-67
2023/10/22 14:16:27;;;;;;;3.10;0.80;;;16.50;78.50;;;;;;9168677;19;20014;-70
2023/10/22 14:19:32;;;;;;;3.67;1.13;;;16.40;78.20;;;;;;9169639;19;20266;-68
2023/10/22 14:22:40;;;;;;;0.80;0.60;;;16.40;78.10;;;;;;9167753;19;20413;-68
2023/10/22 14:25:57;;;;;;;3.55;0.88;;;16.40;78.10;;;;;;9170614;19;20779;-68
2023/10/22 14:29:04;;;;;;;3.75;1.20;;;16.30;78.00;;;;;;9166050;19;20014;-68
2023/10/22 14:32:12;;;;;;;1.65;0.77;;;16.20;77.80;;;;;;9167632;19;20424;-69
2023/10/22 14:35:20;;;;;;;1.67;0.60;;;16.20;77.80;;;;;;9167078;19;20025;-68
2023/10/22 14:38:25;;;;;;;5.38;0.95;;;16.10;77.80;;;;;;9168718;19;20022;-68
2023/10/22 14:41:33;;;;;;;2.30;0.88;;;16.10;77.80;;;;;;9165223;19;20018;-67
2023/10/22 14:44:38;;;;;;;6.80;1.13;;;16.10;77.80;;;;;;9167064;19;20026;-68
2023/10/22 14:47:49;;;;;;;3.42;2.03;;;16.00;77.80;;;;;;9169228;19;20014;-71
2023/10/22 14:50:57;;;;;;;2.63;1.23;;;16.00;77.80;;;;;;9168169;19;20014;-69
2023/10/22 14:54:05;;;;;;;4.47;1.23;;;15.90;77.90;;;;;;9167148;19;20021;-68
2023/10/22 14:57:11;;;;;;;2.28;1.00;;;15.90;77.90;;;;;;9165683;19;20078;-68
2023/10/22 15:00:19;;;;;;;3.80;1.08;;;15.90;77.90;;;;;;9168271;19;20014;-67
2023/10/22 15:03:27;;;;;;;2.35;1.13;;;15.90;77.90;;;;;;9168101;19;20015;-67
2023/10/22 15:06:35;;;;;;;8.25;1.40;;;15.80;78.40;;;;;;9163457;19;20024;-67
2023/10/22 15:09:40;;;;;;;5.03;1.20;;;15.80;77.90;;;;;;9167668;19;20022;-67
2023/10/22 15:12:48;;;;;;;7.15;1.05;;;15.80;77.80;;;;;;9167027;19;20126;-68
2023/10/22 15:15:54;;;;;;;5.93;1.20;;;15.70;77.80;;;;;;9168315;19;20478;-67
2023/10/22 15:19:04;;;;;;;3.60;1.45;;;15.80;77.90;;;;;;9164664;19;20014;-71
2023/10/22 15:22:10;;;;;;;7.53;2.00;;;15.70;77.80;;;;;;9163874;19;20024;-67
2023/10/22 15:25:17;;;;;;;3.28;1.48;;;15.70;77.90;;;;;;9166729;19;20029;-67
2023/10/22 15:28:25;;;;;;;2.38;1.15;;;15.60;77.90;;;;;;9174439;19;20018;-68
2023/10/22 15:31:32;;;;;;;2.25;1.30;;;15.60;78.00;;;;;;9172767;19;20038;-68
2023/10/22 15:34:41;;;;;;;3.72;1.25;;;15.60;78.70;;;;;;9173910;19;20017;-70
2023/10/22 15:37:50;;;;;;;6.13;2.03;;;15.60;78.00;;;;;;9167594;19;20050;-69
2023/10/22 15:41:01;;;;;;;5.95;1.48;;;15.40;78.00;;;;;;9165277;19;20021;-68
2023/10/22 15:44:08;;;;;;;2.65;1.30;;;15.50;78.00;;;;;;9164337;19;20014;-67
2023/10/22 15:47:14;;;;;;;3.88;2.00;;;15.40;78.30;;;;;;9163778;19;20029;-68
2023/10/22 15:50:25;;;;;;;3.25;1.67;;;15.40;78.00;;;;;;9161264;19;20038;-67
2023/10/22 15:53:30;;;;;;;1.98;1.10;;;15.40;78.10;;;;;;9162615;19;20347;-67
2023/10/22 15:56:38;;;;;;;4.57;1.65;;;15.30;78.10;;;;;;9163782;19;20025;-68
2023/10/22 15:59:43;;;;;;;2.10;1.45;;;15.30;78.10;;;;;;9164956;19;20431;-68
2023/10/22 16:02:50;;;;;;;4.10;1.42;;;15.20;78.20;;;;;;9164009;19;20014;-67
2023/10/22 16:05:59;;;;;;;7.85;2.20;;;15.20;78.90;;;;;;9164028;19;20308;-68
2023/10/22 16:09:07;;;;;;;3.25;1.20;;;15.20;78.40;;;;;;9160893;19;20337;-68
2023/10/22 16:12:14;;;;;;;3.35;1.50;;;15.10;78.70;;;;;;9165326;19;20019;-68
2023/10/22 16:15:22;;;;;;;5.35;1.70;;;15.10;78.70;;;;;;9163393;19;20007;-67
2023/10/22 16:18:27;;;;;;;3.47;1.63;;;15.00;78.70;;;;;;9164868;19;20024;-68